Terminal Aerodrome Forecast
Issued by NWS Wilmington, OH

Home | Current Version | Previous Version | Text Only | Print | Product List | Glossary On
Versions: 1 2 3 4 5 6 7 8 9 10 11 12 13 14 15 16
000
FTUS41 KILN 232208 AAB
TAFILN
TAF AMD
KILN 232208Z 2322/2418 20012G18KT P6SM VCSH OVC035
      TEMPO 2323/2324 3SM -SHRA OVC025
     FM240000 25012KT P6SM VCSH OVC015
     FM240600 21010KT P6SM VCSH BKN025
     FM241200 23012KT P6SM BKN025
     FM241600 25012G20KT P6SM FEW030 BKN040=

USA.gov is the U.S. government's official web portal to all federal, state and local government web resources and services.